Time;durP1;ratioP1;P1;durP2;ratioP2;P2;SDS_P1;SDS_P2;PMS_P1;PMS_P2;Temp;Humidity;BMP_temperature;BMP_pressure;BME280_temperature;BME280_humidity;BME280_pressure;Samples;Min_cycle;Max_cycle;Signal;HPM_P1;HPM_P2
2023/01/01 00:01:39;;;;;;;26.50;3.92;;;;;;;20.11;65.02;99370.38;7308069;19;129344;-67
2023/01/01 00:04:07;;;;;;;17.60;3.10;;;;;;;20.15;64.89;99373.53;7306890;19;129938;-65
2023/01/01 00:06:33;;;;;;;19.38;3.53;;;;;;;20.15;64.77;99373.53;7306642;19;129525;-67
2023/01/01 00:11:43;;;;;;;44.92;5.60;;;;;;;20.13;64.77;99365.00;7313154;19;129478;-64
2023/01/01 00:14:08;;;;;;;28.67;4.45;;;;;;;20.04;65.34;99356.19;7317318;19;130934;-67
2023/01/01 00:16:34;;;;;;;17.02;2.97;;;;;;;20.14;65.38;99377.09;7314233;19;129521;-67
2023/01/01 00:18:59;;;;;;;22.10;3.80;;;;;;;20.13;64.90;99376.25;7315791;19;128892;-66
2023/01/01 00:21:25;;;;;;;28.58;3.95;;;;;;;20.10;64.83;99383.53;7313950;19;129018;-66
2023/01/01 00:23:50;;;;;;;13.65;2.83;;;;;;;20.10;64.75;99386.13;7314781;19;131369;-67
2023/01/01 00:26:17;;;;;;;21.25;3.75;;;;;;;20.10;64.82;99386.13;7314108;19;129227;-65
2023/01/01 00:28:42;;;;;;;;;;;;;;;20.17;64.99;99382.06;7315131;19;129346;-67
2023/01/01 00:31:15;;;;;;;49.55;5.60;;;;;;;20.10;64.85;99381.75;7313408;19;129040;-66
2023/01/01 00:33:41;;;;;;;16.65;3.25;;;;;;;20.07;64.77;99383.81;7316959;19;129700;-67
2023/01/01 00:36:11;;;;;;;31.88;5.18;;;;;;;20.06;64.90;99379.56;7311527;19;130031;-67
2023/01/01 00:38:37;;;;;;;14.63;3.03;;;;;;;20.07;65.09;99381.19;7315665;19;129143;-65
2023/01/01 00:41:03;;;;;;;23.57;4.37;;;;;;;20.05;65.17;99383.09;7313218;19;129205;-64
2023/01/01 00:43:28;;;;;;;27.30;4.10;;;;;;;20.08;64.66;99382.84;7312710;19;129108;-67
2023/01/01 00:45:54;;;;;;;27.42;4.18;;;;;;;20.04;64.88;99376.25;7312377;19;129173;-64
2023/01/01 00:48:20;;;;;;;27.75;3.80;;;;;;;19.99;64.79;99365.38;7315942;19;129411;-67
2023/01/01 00:50:50;;;;;;;24.70;3.50;;;;;;;20.06;65.04;99387.38;7314518;19;129385;-67
2023/01/01 00:53:15;;;;;;;23.63;3.65;;;;;;;20.01;65.38;99386.97;7316229;19;130494;-67
2023/01/01 00:55:42;;;;;;;18.73;3.42;;;;;;;20.04;65.42;99390.13;7313930;19;129062;-67
2023/01/01 00:58:09;;;;;;;26.35;3.70;;;;;;;20.01;65.45;99394.78;7316021;19;129132;-66
2023/01/01 01:00:34;;;;;;;48.58;5.95;;;;;;;20.02;65.36;99401.66;7313416;19;129318;-66
2023/01/01 01:03:00;;;;;;;19.48;3.38;;;;;;;20.02;64.34;99409.47;7315208;19;129772;-65
2023/01/01 01:05:25;;;;;;;32.65;5.13;;;;;;;20.02;65.01;99404.25;7313308;19;130528;-65
2023/01/01 01:07:50;;;;;;;15.55;3.38;;;;;;;20.01;65.25;99413.06;7314717;19;130669;-65
2023/01/01 01:10:16;;;;;;;29.25;3.92;;;;;;;19.92;64.66;99399.03;7315110;19;129519;-66
2023/01/01 01:12:41;;;;;;;10.95;2.72;;;;;;;20.02;65.41;99425.97;7313146;19;131923;-67
2023/01/01 01:15:09;;;;;;;44.30;5.90;;;;;;;20.02;64.80;99425.13;7313939;19;129991;-67
2023/01/01 01:17:35;;;;;;;22.75;3.50;;;;;;;20.00;65.22;99427.88;7315083;19;129582;-66
2023/01/01 01:20:00;;;;;;;22.13;3.83;;;;;;;20.00;64.64;99429.69;7314632;19;129419;-65
2023/01/01 01:22:26;;;;;;;19.73;3.80;;;;;;;20.02;65.15;99440.78;7313025;19;129805;-65
2023/01/01 01:24:51;;;;;;;21.73;3.42;;;;;;;19.99;65.01;99438.44;7314456;19;129328;-67
2023/01/01 01:27:16;;;;;;;17.65;3.30;;;;;;;19.99;65.48;99441.06;7313225;19;129145;-64
2023/01/01 01:29:42;;;;;;;31.88;4.78;;;;;;;19.96;65.50;99442.16;7313640;19;129334;-67
2023/01/01 01:32:09;;;;;;;15.05;2.65;;;;;;;19.96;64.95;99436.09;7312126;19;129452;-66
2023/01/01 01:34:35;;;;;;;17.30;3.28;;;;;;;19.95;65.25;99445.72;7312933;19;129305;-66
2023/01/01 01:37:00;;;;;;;22.10;3.72;;;;;;;19.96;64.78;99436.94;7313284;19;129214;-64
2023/01/01 01:39:26;;;;;;;13.73;3.03;;;;;;;19.97;64.93;99446.41;7314170;19;129092;-67
2023/01/01 01:41:51;;;;;;;15.37;3.07;;;;;;;19.87;64.88;99436.88;7312661;19;129734;-66
2023/01/01 01:44:47;;;;;;;23.50;3.80;;;;;;;19.95;65.72;99447.50;7310400;19;129443;-65
2023/01/01 01:47:31;;;;;;;18.67;3.45;;;;;;;19.92;65.44;99451.19;7311491;19;129734;-67
2023/01/01 01:50:12;;;;;;;20.52;3.47;;;;;;;19.94;65.92;99448.44;7314582;19;129459;-65
2023/01/01 01:52:46;;;;;;;20.13;3.65;;;;;;;19.92;64.94;99445.97;7312824;19;129119;-66
2023/01/01 01:55:12;;;;;;;29.65;4.95;;;;;;;19.92;64.99;99453.81;7312932;19;129075;-67
2023/01/01 01:57:39;;;;;;;21.73;3.73;;;;;;;19.91;64.50;99449.56;7313113;19;129196;-67
2023/01/01 02:00:05;;;;;;;22.20;4.03;;;;;;;19.92;65.59;99450.38;7313912;19;129663;-67
2023/01/01 02:02:34;;;;;;;20.08;3.45;;;;;;;19.85;65.12;99442.25;7310434;19;130901;-67
2023/01/01 02:04:59;;;;;;;39.75;5.90;;;;;;;19.92;65.34;99458.19;7311321;19;130315;-65
2023/01/01 02:07:27;;;;;;;20.70;3.53;;;;;;;19.91;65.18;99448.72;7313028;19;128983;-65
2023/01/01 02:09:53;;;;;;;32.15;5.13;;;;;;;19.90;65.57;99440.06;7311622;19;129559;-67
2023/01/01 02:12:18;;;;;;;31.98;5.30;;;;;;;19.91;65.45;99449.56;7306975;19;129561;-67
2023/01/01 02:14:43;;;;;;;15.23;3.13;;;;;;;19.93;64.89;99444.22;7311954;19;129392;-64
2023/01/01 02:17:20;;;;;;;19.35;3.45;;;;;;;19.91;64.91;99452.16;7311449;19;129400;-65
2023/01/01 02:20:17;;;;;;;23.67;3.97;;;;;;;19.91;64.79;99453.94;7312796;19;129261;-66
2023/01/01 02:22:48;;;;;;;24.25;3.55;;;;;;;19.81;65.49;99432.22;7310099;19;129969;-67
2023/01/01 02:25:39;;;;;;;25.27;4.05;;;;;;;19.91;64.96;99452.16;7312978;19;129735;-66
2023/01/01 02:28:18;;;;;;;20.85;3.47;;;;;;;19.91;65.51;99448.72;7312941;19;129267;-64
2023/01/01 02:30:45;;;;;;;9.75;2.30;;;;;;;19.87;64.87;99447.31;7312068;19;129606;-65
2023/01/01 02:33:16;;;;;;;13.93;2.65;;;;;;;19.88;65.55;99447.22;7310160;19;129375;-65
2023/01/01 02:36:09;;;;;;;22.42;3.67;;;;;;;19.92;65.57;99450.38;7312243;19;129019;-67
2023/01/01 02:38:45;;;;;;;19.55;3.50;;;;;;;19.88;65.37;99446.38;7311637;19;131836;-66
2023/01/01 02:41:29;;;;;;;23.42;3.25;;;;;;;19.91;65.44;99448.72;7307995;19;131432;-67
2023/01/01 02:43:55;;;;;;;27.33;3.80;;;;;;;19.89;65.28;99448.03;7306578;19;130592;-66
2023/01/01 02:46:20;;;;;;;10.82;2.45;;;;;;;19.89;65.11;99453.25;7312471;19;129388;-67
2023/01/01 02:48:49;;;;;;;21.65;3.53;;;;;;;19.89;64.80;99446.25;7312502;19;129428;-64
2023/01/01 02:51:30;;;;;;;16.33;2.70;;;;;;;19.90;65.67;99452.31;7310143;19;129323;-64
2023/01/01 02:53:58;;;;;;;20.25;3.17;;;;;;;19.89;65.41;99451.47;7312617;19;130240;-67
2023/01/01 02:56:31;;;;;;;45.13;5.35;;;;;;;19.90;64.64;99447.09;7310750;19;129176;-65
2023/01/01 03:02:35;;;;;;;30.20;3.88;;;;;;;19.90;65.29;99447.88;7308506;19;129180;-64
2023/01/01 03:05:19;;;;;;;52.80;7.07;;;;;;;19.91;65.22;99448.72;7309815;19;129148;-67
2023/01/01 03:07:50;;;;;;;21.38;3.58;;;;;;;19.88;64.57;99455.03;7311765;19;129413;-66
2023/01/01 03:10:25;;;;;;;27.05;3.53;;;;;;;19.86;64.41;99450.91;7309597;19;129017;-68
2023/01/01 03:12:59;;;;;;;21.65;3.15;;;;;;;19.77;64.92;99436.03;7311125;19;129824;-65
2023/01/01 03:15:32;;;;;;;15.57;3.20;;;;;;;19.86;64.96;99451.75;7307627;19;131893;-67
2023/01/01 03:18:11;;;;;;;15.43;2.65;;;;;;;19.87;65.32;99455.16;7310509;19;128833;-65
2023/01/01 03:20:41;;;;;;;27.55;3.60;;;;;;;19.87;65.31;99442.09;7310065;19;129867;-66
2023/01/01 03:23:12;;;;;;;18.70;3.15;;;;;;;19.86;65.22;99450.91;7309760;19;131510;-66
2023/01/01 03:26:06;;;;;;;30.13;4.20;;;;;;;19.89;64.77;99450.63;7308661;19;129451;-67
2023/01/01 03:28:37;;;;;;;28.90;4.35;;;;;;;19.87;64.55;99439.50;7308928;19;129422;-66
2023/01/01 03:31:04;;;;;;;28.05;3.70;;;;;;;19.87;64.77;99442.09;7308046;19;128915;-68
2023/01/01 03:33:37;;;;;;;;;;;;;;;19.95;64.50;99447.50;7310941;19;129126;-64
2023/01/01 03:36:08;;;;;;;19.98;3.38;;;;;;;19.87;64.94;99442.94;7308779;19;129156;-65
2023/01/01 03:39:00;;;;;;;16.13;2.85;;;;;;;19.86;65.03;99443.91;7309816;19;130794;-64
2023/01/01 03:41:31;;;;;;;24.98;3.70;;;;;;;19.85;64.35;99444.84;7306917;19;129569;-65
2023/01/01 03:44:18;;;;;;;20.35;3.60;;;;;;;19.87;65.23;99434.28;7305439;19;129562;-67
2023/01/01 03:46:44;;;;;;;35.13;4.50;;;;;;;19.85;64.46;99434.41;7313547;19;129713;-64
2023/01/01 03:49:11;;;;;;;28.87;4.73;;;;;;;19.85;64.51;99441.44;7317236;19;130774;-66
2023/01/01 03:52:15;;;;;;;19.88;3.38;;;;;;;19.76;65.07;99429.16;7315524;19;129742;-66
2023/01/01 03:54:44;;;;;;;20.52;3.42;;;;;;;19.85;64.69;99439.63;7313574;19;129557;-64
2023/01/01 03:57:09;;;;;;;18.60;3.45;;;;;;;19.84;64.38;99442.38;7313802;19;129909;-66
2023/01/01 03:59:48;;;;;;;12.02;3.15;;;;;;;19.85;64.88;99428.41;7315751;19;130188;-65
2023/01/01 04:02:19;;;;;;;22.98;3.65;;;;;;;19.84;64.78;99437.16;7313014;19;129098;-68
2023/01/01 04:04:47;;;;;;;25.30;3.50;;;;;;;19.83;65.17;99445.94;7313563;19;129137;-66
2023/01/01 04:07:12;;;;;;;13.48;2.60;;;;;;;19.76;64.65;99439.59;7314207;19;129589;-65
2023/01/01 04:09:42;;;;;;;16.55;3.20;;;;;;;19.80;64.47;99441.81;7314833;19;130050;-67
2023/01/01 04:12:09;;;;;;;22.63;3.50;;;;;;;19.81;65.11;99447.84;7312893;19;129070;-65
2023/01/01 04:14:38;;;;;;;;;;;;;;;19.89;65.04;99445.41;7315484;19;130096;-67
2023/01/01 04:17:06;;;;;;;24.60;3.20;;;;;;;19.82;64.67;99444.28;7313941;19;129817;-64
2023/01/01 04:19:32;;;;;;;28.38;3.92;;;;;;;19.81;65.03;99447.84;7313527;19;129142;-67
2023/01/01 04:21:58;;;;;;;21.37;3.17;;;;;;;19.80;64.67;99452.25;7313921;19;129554;-66
2023/01/01 04:24:23;;;;;;;30.67;3.95;;;;;;;19.81;64.61;99451.31;7314039;19;129778;-64
2023/01/01 04:26:50;;;;;;;33.17;4.78;;;;;;;19.80;65.08;99446.22;7311535;19;129340;-64
2023/01/01 04:29:16;;;;;;;18.73;2.67;;;;;;;19.78;64.82;99448.97;7315939;19;129156;-71
2023/01/01 04:31:41;;;;;;;34.95;4.28;;;;;;;19.80;64.51;99459.25;7310728;19;128926;-67
2023/01/01 04:34:07;;;;;;;37.58;4.65;;;;;;;19.70;63.80;99467.03;7315019;19;129056;-69
2023/01/01 04:36:33;;;;;;;12.57;2.70;;;;;;;19.37;64.60;99469.88;7314554;19;129081;-67
2023/01/01 04:38:58;;;;;;;28.50;4.23;;;;;;;19.36;63.87;99474.28;7315495;19;130218;-64
2023/01/01 04:41:23;;;;;;;28.00;4.35;;;;;;;19.40;63.86;99465.22;7312456;19;129566;-66
2023/01/01 04:43:49;;;;;;;28.48;3.58;;;;;;;19.57;62.84;99476.03;7312860;19;129577;-64
2023/01/01 04:46:16;;;;;;;18.35;2.97;;;;;;;19.70;62.33;99467.03;7312719;19;130377;-67
2023/01/01 04:48:41;;;;;;;15.68;2.45;;;;;;;19.74;62.03;99457.16;7315167;19;128969;-65
2023/01/01 04:51:08;;;;;;;26.17;3.38;;;;;;;19.92;62.02;99458.19;7312811;19;129231;-67
2023/01/01 04:53:34;;;;;;;22.65;3.25;;;;;;;20.01;61.65;99466.06;7314642;19;129249;-66
2023/01/01 04:56:08;;;;;;;24.60;3.65;;;;;;;20.19;60.96;99468.91;7312279;19;129165;-67
2023/01/01 04:58:35;;;;;;;17.33;2.78;;;;;;;20.28;61.09;99463.69;7313944;19;129444;-64
2023/01/01 05:01:00;;;;;;;;;;;;;;;20.39;60.24;99475.81;7312579;19;129037;-66
2023/01/01 05:03:26;;;;;;;35.20;4.32;;;;;;;20.48;60.28;99462.75;7312801;19;129373;-65
2023/01/01 05:06:21;;;;;;;17.85;2.90;;;;;;;20.63;60.09;99468.41;7312061;19;129524;-67
2023/01/01 05:08:49;;;;;;;17.20;2.50;;;;;;;20.79;59.65;99473.94;7314681;19;129890;-65
2023/01/01 05:11:19;;;;;;;13.63;2.35;;;;;;;20.83;59.18;99470.06;7312212;19;129345;-67
2023/01/01 05:13:47;;;;;;;24.42;3.67;;;;;;;20.93;59.23;99468.28;7311557;19;131923;-67
2023/01/01 05:16:15;;;;;;;16.42;2.60;;;;;;;21.01;58.65;99465.81;7310011;19;129790;-66
2023/01/01 05:18:42;;;;;;;25.88;3.53;;;;;;;21.00;58.78;99443.28;7312485;19;129388;-65
2023/01/01 05:21:11;;;;;;;23.98;3.17;;;;;;;21.18;58.60;99456.44;7312702;19;129605;-67
2023/01/01 05:23:36;;;;;;;23.02;3.42;;;;;;;21.19;58.65;99456.31;7312704;19;132879;-67
2023/01/01 05:26:17;;;;;;;20.27;3.15;;;;;;;21.29;58.35;99451.88;7311976;19;129877;-65
2023/01/01 05:28:44;;;;;;;29.00;4.07;;;;;;;21.33;57.80;99453.25;7312386;19;129553;-66
2023/01/01 05:31:17;;;;;;;25.88;3.38;;;;;;;21.34;58.39;99454.91;7311754;19;130549;-66
2023/01/01 05:33:43;;;;;;;27.55;3.38;;;;;;;21.48;57.25;99451.84;7313085;19;129554;-67
2023/01/01 05:36:16;;;;;;;16.70;2.50;;;;;;;21.48;57.40;99461.47;7311526;19;129909;-65
2023/01/01 05:38:41;;;;;;;13.38;2.13;;;;;;;21.39;57.47;99451.84;7313173;19;128948;-67
2023/01/01 05:41:08;;;;;;;20.90;2.78;;;;;;;21.33;58.46;99453.25;7311446;19;129355;-65
2023/01/01 05:43:34;;;;;;;21.08;2.95;;;;;;;21.26;58.28;99462.63;7311317;19;130795;-65
2023/01/01 05:46:10;;;;;;;29.20;4.22;;;;;;;21.16;58.34;99458.38;7310909;19;129598;-64
2023/01/01 05:48:35;;;;;;;16.40;2.50;;;;;;;21.06;59.29;99461.00;7312444;19;128988;-65
2023/01/01 05:51:23;;;;;;;25.65;3.78;;;;;;;20.93;59.74;99468.28;7310055;19;128813;-66
2023/01/01 05:53:48;;;;;;;16.50;2.53;;;;;;;20.88;59.79;99472.25;7312877;19;129782;-65
2023/01/01 05:56:14;;;;;;;47.35;6.05;;;;;;;20.74;60.14;99471.72;7307188;19;130720;-64
2023/01/01 05:58:41;;;;;;;22.35;2.97;;;;;;;20.72;60.47;99476.25;7313172;19;128836;-66
2023/01/01 06:01:09;;;;;;;18.10;2.57;;;;;;;20.64;60.80;99483.13;7310802;19;128878;-67
2023/01/01 06:03:35;;;;;;;16.20;2.35;;;;;;;20.56;60.72;99477.78;7312760;19;128975;-67
2023/01/01 06:06:05;;;;;;;23.97;3.17;;;;;;;20.50;60.87;99480.91;7309626;19;129302;-67
2023/01/01 06:08:31;;;;;;;21.75;3.03;;;;;;;20.41;61.34;99482.53;7309633;19;129671;-66
2023/01/01 06:10:58;;;;;;;27.95;3.45;;;;;;;20.36;61.50;99481.31;7309286;19;129157;-67
2023/01/01 06:13:23;;;;;;;27.67;3.83;;;;;;;20.32;61.50;99490.34;7311520;19;129671;-67
2023/01/01 06:15:54;;;;;;;21.67;2.67;;;;;;;20.25;61.96;99484.84;7311177;19;129857;-65
2023/01/01 06:18:19;;;;;;;19.25;2.47;;;;;;;20.19;62.13;99480.16;7312528;19;129314;-65
2023/01/01 06:20:44;;;;;;;14.20;2.08;;;;;;;20.17;62.36;99497.75;7310891;19;129249;-66
2023/01/01 06:23:10;;;;;;;27.65;3.17;;;;;;;20.13;62.51;99485.88;7311887;19;129113;-68
2023/01/01 06:25:35;;;;;;;35.53;4.40;;;;;;;20.12;61.99;99489.44;7309781;19;130545;-65
2023/01/01 06:28:00;;;;;;;20.73;2.80;;;;;;;20.15;62.49;99498.81;7313152;19;129398;-64
2023/01/01 06:30:25;;;;;;;30.80;3.63;;;;;;;20.18;61.65;99499.38;7310836;19;130087;-66
2023/01/01 06:32:52;;;;;;;21.25;2.92;;;;;;;20.26;61.93;99496.13;7311911;19;128990;-67
2023/01/01 06:35:17;;;;;;;29.83;3.83;;;;;;;20.40;61.35;99506.16;7309703;19;129622;-65
2023/01/01 06:37:43;;;;;;;21.63;2.83;;;;;;;20.45;61.26;99494.38;7312109;19;129763;-67
2023/01/01 06:40:08;;;;;;;20.05;3.45;;;;;;;20.52;60.81;99510.34;7310932;19;129354;-67
2023/01/01 06:42:34;;;;;;;27.52;3.10;;;;;;;20.60;61.02;99494.81;7308714;19;130422;-67
2023/01/01 06:44:59;;;;;;;57.50;6.50;;;;;;;20.63;60.84;99500.59;7309375;19;130689;-65
2023/01/01 06:47:24;;;;;;;9.95;1.90;;;;;;;20.66;60.71;99499.47;7307676;19;129583;-66
2023/01/01 06:49:50;;;;;;;17.13;2.35;;;;;;;20.64;60.21;99511.88;7311377;19;130191;-65
2023/01/01 06:52:15;;;;;;;23.35;2.88;;;;;;;20.63;60.89;99511.03;7305635;19;131705;-67
2023/01/01 06:54:40;;;;;;;18.85;2.35;;;;;;;20.58;60.51;99507.16;7313242;19;130979;-65
2023/01/01 06:57:05;;;;;;;25.02;3.60;;;;;;;20.56;60.51;99514.34;7310914;19;129086;-67
2023/01/01 06:59:31;;;;;;;13.38;2.10;;;;;;;20.51;61.33;99522.56;7312146;19;129168;-66
2023/01/01 07:01:56;;;;;;;24.75;2.95;;;;;;;20.41;61.07;99515.69;7309388;19;129530;-65
2023/01/01 07:04:21;;;;;;;25.00;3.22;;;;;;;20.42;61.03;99538.19;7308845;19;129603;-67
2023/01/01 07:06:47;;;;;;;12.45;2.08;;;;;;;20.39;61.38;99536.69;7311118;19;129647;-67
2023/01/01 07:09:12;;;;;;;26.63;3.25;;;;;;;20.31;61.81;99540.94;7309799;19;129310;-65
2023/01/01 07:11:37;;;;;;;22.08;2.85;;;;;;;20.31;61.62;99544.34;7307499;19;129486;-66
2023/01/01 07:14:03;;;;;;;23.55;3.15;;;;;;;20.28;61.99;99541.19;7310501;19;129543;-67
2023/01/01 07:16:28;;;;;;;28.73;3.80;;;;;;;20.23;61.83;99549.41;7302735;19;129944;-66
2023/01/01 07:18:54;;;;;;;13.35;2.10;;;;;;;20.20;62.70;99552.28;7312546;19;129249;-65
2023/01/01 07:21:42;;;;;;;23.75;2.97;;;;;;;20.14;63.30;99554.56;7310039;19;129959;-68
2023/01/01 07:24:10;;;;;;;15.32;2.38;;;;;;;20.11;62.89;99555.66;7315311;19;129587;-64
2023/01/01 07:26:36;;;;;;;23.95;3.40;;;;;;;20.12;62.34;99551.25;7312761;19;129435;-67
2023/01/01 07:29:02;;;;;;;20.85;2.92;;;;;;;20.14;62.34;99551.94;7316453;19;129540;-65
2023/01/01 07:31:27;;;;;;;25.83;3.40;;;;;;;20.11;61.85;99541.78;7313591;19;129588;-65
2023/01/01 07:33:53;;;;;;;25.70;3.22;;;;;;;20.32;61.63;99568.69;7315742;19;129336;-65
2023/01/01 07:36:18;;;;;;;48.88;6.30;;;;;;;20.44;61.16;99567.63;7308787;19;131313;-67
2023/01/01 07:38:43;;;;;;;8.48;1.77;;;;;;;20.48;61.43;99579.44;7315025;19;130331;-67
2023/01/01 07:41:09;;;;;;;33.33;3.70;;;;;;;20.58;61.03;99580.28;7314208;19;129419;-65
2023/01/01 07:43:34;;;;;;;39.88;5.28;;;;;;;20.57;60.80;99596.94;7314901;19;129975;-65
2023/01/01 07:46:00;;;;;;;30.95;4.00;;;;;;;20.59;60.55;99597.63;7313788;19;129573;-67
2023/01/01 07:48:26;;;;;;;21.07;2.67;;;;;;;20.54;60.76;99595.41;7314898;19;129309;-68
2023/01/01 07:50:51;;;;;;;25.17;2.90;;;;;;;20.54;60.99;99599.81;7316547;19;131567;-67
2023/01/01 07:53:16;;;;;;;25.27;3.05;;;;;;;20.53;61.06;99613.81;7315155;19;132071;-66
2023/01/01 07:55:42;;;;;;;12.25;1.83;;;;;;;20.48;60.80;99621.22;7313563;19;129558;-66
2023/01/01 07:58:10;;;;;;;24.05;3.13;;;;;;;20.46;61.14;99615.34;7313218;19;130187;-67
2023/01/01 08:00:35;;;;;;;35.42;3.90;;;;;;;20.43;61.96;99618.19;7313380;19;129653;-64
2023/01/01 08:03:01;;;;;;;16.98;2.35;;;;;;;20.38;61.54;99623.81;7314833;19;129859;-67
2023/01/01 08:05:26;;;;;;;26.55;3.45;;;;;;;20.34;62.05;99629.44;7309653;19;129236;-64
2023/01/01 08:07:52;;;;;;;17.80;2.38;;;;;;;20.28;61.88;99640.41;7312938;19;129667;-65
2023/01/01 08:10:21;;;;;;;22.88;2.63;;;;;;;20.23;61.90;99637.34;7310470;19;129558;-67
2023/01/01 08:12:47;;;;;;;16.75;2.15;;;;;;;20.23;62.82;99638.16;7313316;19;132753;-67
2023/01/01 08:15:12;;;;;;;30.90;3.95;;;;;;;20.21;62.33;99636.66;7310617;19;131135;-67
2023/01/01 08:17:39;;;;;;;24.67;3.35;;;;;;;20.19;62.10;99643.78;7313936;19;130201;-65
2023/01/01 08:20:05;;;;;;;33.43;3.93;;;;;;;20.14;62.94;99632.88;7312604;19;130049;-65
2023/01/01 08:22:30;;;;;;;41.43;5.07;;;;;;;20.17;62.37;99633.47;7308424;19;131562;-65
2023/01/01 08:24:55;;;;;;;45.25;6.07;;;;;;;20.25;62.30;99636.25;7305684;19;131084;-66
2023/01/01 08:27:21;;;;;;;35.42;4.15;;;;;;;20.29;62.33;99636.81;7312140;19;129325;-64
2023/01/01 08:29:46;;;;;;;29.77;3.70;;;;;;;20.37;61.97;99644.81;7307471;19;130546;-66
2023/01/01 08:32:12;;;;;;;18.80;2.47;;;;;;;20.47;61.06;99656.16;7311140;19;129582;-66
2023/01/01 08:34:37;;;;;;;21.67;2.78;;;;;;;20.55;61.40;99653.69;7311636;19;129336;-66
2023/01/01 08:37:03;;;;;;;27.10;3.00;;;;;;;20.58;60.71;99663.88;7312136;19;129363;-66
2023/01/01 08:39:29;;;;;;;31.53;3.67;;;;;;;20.61;60.77;99658.38;7312061;19;129582;-66
2023/01/01 08:41:54;;;;;;;22.30;3.05;;;;;;;20.52;61.20;99654.81;7313341;19;131446;-65
2023/01/01 08:44:19;;;;;;;9.52;1.55;;;;;;;20.57;60.67;99659.63;7313645;19;129593;-64
2023/01/01 08:46:45;;;;;;;27.60;3.28;;;;;;;20.54;61.08;99659.91;7310117;19;130246;-64
2023/01/01 08:49:11;;;;;;;29.55;3.95;;;;;;;20.49;61.05;99675.94;7312650;19;130250;-66
2023/01/01 08:51:36;;;;;;;13.32;2.05;;;;;;;20.46;60.82;99665.75;7310129;19;129482;-66
2023/01/01 08:54:01;;;;;;;51.53;5.28;;;;;;;20.42;61.43;99668.75;7311314;19;129837;-64
2023/01/01 08:56:27;;;;;;;47.60;4.85;;;;;;;20.36;61.48;99675.31;7310777;19;129364;-66
2023/01/01 08:58:52;;;;;;;20.85;3.15;;;;;;;20.32;62.02;99671.34;7311396;19;132154;-64
2023/01/01 09:01:20;;;;;;;29.02;3.63;;;;;;;20.31;61.72;99671.47;7309402;19;129969;-67
2023/01/01 09:03:46;;;;;;;13.00;2.17;;;;;;;20.29;61.88;99674.22;7309315;19;130810;-66
2023/01/01 09:06:11;;;;;;;25.35;2.85;;;;;;;20.25;62.01;99683.25;7307947;19;129931;-64
2023/01/01 09:08:37;;;;;;;42.22;5.63;;;;;;;20.23;62.76;99679.94;7307008;19;130804;-64
2023/01/01 09:11:03;;;;;;;26.08;2.97;;;;;;;20.20;62.15;99689.78;7308677;19;129982;-64
2023/01/01 09:13:29;;;;;;;25.00;3.28;;;;;;;20.21;62.64;99696.69;7311538;19;129589;-64
2023/01/01 09:15:55;;;;;;;32.73;3.90;;;;;;;20.22;62.52;99703.56;7307997;19;129594;-66
2023/01/01 09:18:20;;;;;;;20.40;3.00;;;;;;;20.29;61.67;99709.94;7313606;19;132071;-65
2023/01/01 09:20:46;;;;;;;28.95;3.85;;;;;;;20.37;62.00;99712.72;7307880;19;131944;-66
2023/01/01 09:23:12;;;;;;;19.65;2.35;;;;;;;20.48;61.39;99716.06;7311010;19;129039;-64
2023/01/01 09:25:37;;;;;;;35.80;4.27;;;;;;;20.56;61.24;99725.91;7303205;19;129318;-64
2023/01/01 09:28:09;;;;;;;21.65;2.67;;;;;;;20.63;60.91;99724.41;7308987;19;129416;-64
2023/01/01 09:30:35;;;;;;;21.95;3.00;;;;;;;20.54;60.58;99709.53;7310910;19;129232;-64
2023/01/01 09:33:01;;;;;;;37.22;4.53;;;;;;;20.63;60.58;99727.00;7309291;19;130132;-66
2023/01/01 09:35:27;;;;;;;43.33;4.77;;;;;;;20.61;61.03;99726.31;7308834;19;130379;-64
2023/01/01 09:37:52;;;;;;;30.08;3.83;;;;;;;20.58;60.77;99721.34;7312224;19;129487;-64
2023/01/01 09:40:55;;;;;;;24.73;2.70;;;;;;;20.54;61.44;99714.75;7311179;19;129299;-66
2023/01/01 09:43:44;;;;;;;32.50;4.05;;;;;;;20.53;61.35;99711.28;7308048;19;129509;-66
2023/01/01 09:46:10;;;;;;;19.02;2.70;;;;;;;20.47;61.40;99713.59;7310738;19;129022;-66
2023/01/01 09:48:40;;;;;;;16.67;2.25;;;;;;;20.44;61.79;99708.63;7310940;19;129453;-64
2023/01/01 09:51:14;;;;;;;33.97;4.43;;;;;;;20.37;61.54;99715.31;7310138;19;129161;-66
2023/01/01 09:53:44;;;;;;;26.75;3.53;;;;;;;20.35;62.11;99712.00;7310587;19;129173;-66
2023/01/01 09:56:19;;;;;;;33.33;3.92;;;;;;;20.32;62.24;99707.06;7307627;19;128839;-63
2023/01/01 09:58:44;;;;;;;32.95;2.97;;;;;;;20.31;62.35;99708.81;7311044;19;129890;-66
2023/01/01 10:01:28;;;;;;;69.80;8.55;;;;;;;20.27;63.23;99715.28;7308531;19;129835;-64
2023/01/01 10:04:06;;;;;;;19.55;2.45;;;;;;;20.26;63.79;99703.16;7310904;19;129138;-65
2023/01/01 10:06:40;;;;;;;23.30;3.08;;;;;;;20.27;63.03;99715.28;7309809;19;130240;-64
2023/01/01 10:09:31;;;;;;;49.33;5.57;;;;;;;20.25;64.57;99713.72;7311286;19;129408;-64
2023/01/01 10:12:10;;;;;;;24.02;2.85;;;;;;;20.26;64.05;99718.81;7307819;19;130306;-64
2023/01/01 10:14:41;;;;;;;48.15;5.57;;;;;;;20.25;63.11;99705.91;7310067;19;129877;-66
2023/01/01 10:17:44;;;;;;;25.13;3.42;;;;;;;20.21;62.74;99712.34;7310755;19;129022;-66
2023/01/01 10:20:40;;;;;;;35.30;4.18;;;;;;;20.26;61.94;99715.41;7308960;19;129893;-64
2023/01/01 10:23:24;;;;;;;47.60;5.38;;;;;;;20.32;61.93;99704.44;7306701;19;130233;-64
2023/01/01 10:25:49;;;;;;;45.50;4.90;;;;;;;20.42;61.62;99721.81;7302166;19;128985;-66
2023/01/01 10:28:18;;;;;;;26.17;3.42;;;;;;;20.52;61.07;99724.47;7306544;19;129370;-64
2023/01/01 10:30:43;;;;;;;43.72;5.22;;;;;;;20.55;61.43;99726.84;7306948;19;129899;-67
2023/01/01 10:33:12;;;;;;;41.08;4.45;;;;;;;20.60;60.95;99733.34;7307686;19;130285;-64
2023/01/01 10:35:45;;;;;;;50.72;5.68;;;;;;;20.59;61.11;99743.91;7305549;19;129463;-68
2023/01/01 10:38:21;;;;;;;26.42;3.08;;;;;;;20.59;61.21;99743.91;7311617;19;129817;-66
2023/01/01 10:40:47;;;;;;;40.30;4.90;;;;;;;20.57;61.24;99745.81;7307186;19;128999;-66
2023/01/01 10:43:12;;;;;;;14.95;2.28;;;;;;;20.52;60.63;99737.53;7308978;19;130670;-66
2023/01/01 10:45:45;;;;;;;33.47;3.88;;;;;;;20.36;60.82;99711.88;7304073;19;129137;-65
2023/01/01 10:48:19;;;;;;;34.70;4.15;;;;;;;20.40;59.54;99722.91;7309993;19;129714;-64
2023/01/01 10:50:50;;;;;;;43.75;5.32;;;;;;;20.32;59.92;99727.94;7308006;19;129301;-66
2023/01/01 10:53:22;;;;;;;18.15;2.72;;;;;;;20.32;61.86;99714.88;7308422;19;129478;-66
2023/01/01 10:55:50;;;;;;;20.00;3.10;;;;;;;20.33;62.20;99711.31;7304988;19;130152;-64
2023/01/01 10:58:46;;;;;;;24.88;3.63;;;;;;;20.26;62.08;99703.16;7308576;19;130183;-66
2023/01/01 11:01:20;;;;;;;25.48;3.53;;;;;;;20.33;62.38;99716.53;7306579;19;129302;-66
2023/01/01 11:04:18;;;;;;;30.77;4.43;;;;;;;20.21;62.88;99704.53;7306014;19;129729;-64
2023/01/01 11:06:48;;;;;;;21.08;2.83;;;;;;;20.33;61.29;99722.59;7307686;19;129536;-66
2023/01/01 11:09:23;;;;;;;33.83;5.00;;;;;;;20.36;63.74;99721.50;7309043;19;129788;-66
2023/01/01 11:11:57;;;;;;;23.88;3.58;;;;;;;20.38;64.14;99732.63;7306716;19;129168;-64
2023/01/01 11:14:37;;;;;;;21.13;3.53;;;;;;;20.33;61.09;99726.97;7307890;19;130427;-66
2023/01/01 11:17:04;;;;;;;36.88;5.15;;;;;;;20.21;59.76;99709.75;7304942;19;129444;-64
2023/01/01 11:19:40;;;;;;;12.45;2.30;;;;;;;20.25;60.46;99737.22;7309164;19;129423;-66
2023/01/01 11:22:06;;;;;;;25.13;3.57;;;;;;;20.27;58.89;99733.56;7305686;19;129063;-66
2023/01/01 11:24:33;;;;;;;55.60;5.80;;;;;;;20.29;58.76;99731.66;7307275;19;129889;-64
2023/01/01 11:27:19;;;;;;;25.05;3.85;;;;;;;20.24;58.47;99701.66;7306518;19;131097;-63
2023/01/01 11:29:45;;;;;;;41.95;5.32;;;;;;;20.43;57.70;99723.47;7306879;19;128934;-63
2023/01/01 11:32:30;;;;;;;29.42;3.65;;;;;;;20.42;57.86;99715.75;7306166;19;129892;-65
2023/01/01 11:35:00;;;;;;;41.05;5.75;;;;;;;20.50;56.34;99718.56;7307287;19;130204;-65
2023/01/01 11:37:34;;;;;;;23.42;3.63;;;;;;;20.49;54.84;99704.66;7307894;19;130964;-66